Time;durP1;ratioP1;P1;durP2;ratioP2;P2;SDS_P1;SDS_P2;PMS_P1;PMS_P2;Temp;Humidity;BMP_temperature;BMP_pressure;BME280_temperature;BME280_humidity;BME280_pressure;Samples;Min_cycle;Max_cycle;Signal;HPM_P1;HPM_P2
2023/05/25 00:01:25;;;;;;;12.90;3.55;;;10.80;1.00;;;;;;7369391;19;20086;-69
2023/05/25 00:03:55;;;;;;;9.75;3.22;;;10.80;1.00;;;;;;7369511;19;20038;-69
2023/05/25 00:06:26;;;;;;;10.00;3.33;;;10.80;1.00;;;;;;7371204;19;20126;-69
2023/05/25 00:08:56;;;;;;;17.40;3.50;;;10.70;1.00;;;;;;7393014;19;20486;-69
2023/05/25 00:11:29;;;;;;;11.10;3.63;;;10.70;1.00;;;;;;7370918;19;20013;-68
2023/05/25 00:13:58;;;;;;;6.57;3.50;;;10.60;1.00;;;;;;7369348;19;20014;-68
2023/05/25 00:16:28;;;;;;;9.98;3.90;;;10.50;1.00;;;;;;7371806;19;20006;-69
2023/05/25 00:19:02;;;;;;;12.40;3.58;;;10.50;1.00;;;;;;7370576;19;20479;-68
2023/05/25 00:21:33;;;;;;;8.85;3.92;;;10.60;1.00;;;;;;7370783;19;20085;-68
2023/05/25 00:24:02;;;;;;;9.98;3.47;;;10.70;1.00;;;;;;7371137;19;20022;-69
2023/05/25 00:26:36;;;;;;;8.63;4.10;;;10.60;1.00;;;;;;7393470;19;20034;-69
2023/05/25 00:29:06;;;;;;;12.68;3.90;;;10.50;1.00;;;;;;7370397;19;20396;-69
2023/05/25 00:31:36;;;;;;;9.80;3.95;;;10.50;1.00;;;;;;7370159;19;20007;-69
2023/05/25 00:34:06;;;;;;;8.48;3.35;;;10.40;1.00;;;;;;7368268;19;20014;-69
2023/05/25 00:36:36;;;;;;;9.10;3.75;;;10.40;1.00;;;;;;7371778;19;20040;-69
2023/05/25 00:39:06;;;;;;;9.23;3.60;;;10.40;1.00;;;;;;7370674;19;20031;-69
2023/05/25 00:41:40;;;;;;;9.20;3.60;;;10.40;1.00;;;;;;7392704;19;20732;-69
2023/05/25 00:44:10;;;;;;;8.90;3.75;;;10.40;1.00;;;;;;7367495;19;20538;-69
2023/05/25 00:46:40;;;;;;;11.45;3.85;;;10.40;1.00;;;;;;7371504;19;20339;-69
2023/05/25 00:49:11;;;;;;;8.05;3.45;;;10.40;1.00;;;;;;7369212;19;20011;-69
2023/05/25 00:51:45;;;;;;;14.05;3.90;;;10.40;1.00;;;;;;7370703;19;20018;-69
2023/05/25 00:54:16;;;;;;;9.10;4.13;;;10.40;1.00;;;;;;7368322;19;20194;-69
2023/05/25 00:56:52;;;;;;;10.65;4.10;;;10.40;1.00;;;;;;7392723;19;20364;-68
2023/05/25 00:59:32;;;;;;;9.80;3.20;;;10.40;1.00;;;;;;7369862;19;20030;-68
2023/05/25 01:02:06;;;;;;;7.65;3.40;;;10.40;1.00;;;;;;7367827;19;20034;-67
2023/05/25 01:04:44;;;;;;;12.23;3.53;;;10.40;1.00;;;;;;7368600;19;20034;-68
2023/05/25 01:07:20;;;;;;;12.50;4.35;;;10.40;1.00;;;;;;7369599;19;20063;-69
2023/05/25 01:09:54;;;;;;;12.55;4.22;;;10.40;1.00;;;;;;7369585;19;20030;-68
2023/05/25 01:12:30;;;;;;;15.18;5.00;;;10.40;1.00;;;;;;7369278;19;20086;-68
2023/05/25 01:15:03;;;;;;;9.00;3.42;;;10.40;1.00;;;;;;7390640;19;20014;-68
2023/05/25 01:17:36;;;;;;;13.43;4.35;;;10.40;1.00;;;;;;7370428;19;20011;-68
2023/05/25 01:20:09;;;;;;;10.73;3.75;;;10.40;1.00;;;;;;7367353;19;20030;-69
2023/05/25 01:22:50;;;;;;;10.57;3.88;;;10.40;1.00;;;;;;7368065;19;20011;-69
2023/05/25 01:25:25;;;;;;;10.00;4.13;;;10.30;1.00;;;;;;7367118;19;20014;-68
2023/05/25 01:28:00;;;;;;;13.55;3.70;;;10.30;1.00;;;;;;7368981;19;20034;-69
2023/05/25 01:30:33;;;;;;;11.73;3.67;;;10.20;1.00;;;;;;7368506;19;20017;-68
2023/05/25 01:33:04;;;;;;;12.15;4.50;;;10.20;1.00;;;;;;7367441;19;20010;-69
2023/05/25 01:35:35;;;;;;;8.13;3.65;;;10.10;1.00;;;;;;7389606;19;20010;-69
2023/05/25 01:38:07;;;;;;;12.40;3.83;;;10.10;1.00;;;;;;7367431;19;20031;-69
2023/05/25 01:40:37;;;;;;;12.52;4.13;;;10.20;1.00;;;;;;7368169;19;20011;-69
2023/05/25 01:43:07;;;;;;;13.15;4.03;;;10.20;1.00;;;;;;7366463;19;20078;-69
2023/05/25 01:45:37;;;;;;;9.82;4.40;;;10.10;1.00;;;;;;7367320;19;20014;-69
2023/05/25 01:48:12;;;;;;;14.30;3.67;;;10.10;1.00;;;;;;7369161;19;20021;-69
2023/05/25 01:50:52;;;;;;;11.05;3.90;;;10.00;1.00;;;;;;7389162;19;20518;-68
2023/05/25 01:53:30;;;;;;;10.40;4.22;;;10.00;1.00;;;;;;7366168;19;20023;-69
2023/05/25 01:56:03;;;;;;;11.30;4.28;;;10.10;1.00;;;;;;7367238;19;20030;-68
2023/05/25 01:58:38;;;;;;;13.65;4.07;;;10.00;1.00;;;;;;7368352;19;20086;-68
2023/05/25 02:01:08;;;;;;;;;;;10.00;1.00;;;;;;7368359;19;20517;-68
2023/05/25 02:03:39;;;;;;;12.82;3.90;;;9.90;1.00;;;;;;7366144;19;19911;-68
2023/05/25 02:06:09;;;;;;;8.88;4.13;;;9.90;1.00;;;;;;7367373;19;20478;-68
2023/05/25 02:08:42;;;;;;;14.48;3.47;;;9.90;1.00;;;;;;7390200;19;20081;-68
2023/05/25 02:11:14;;;;;;;10.77;3.80;;;9.80;1.00;;;;;;7367937;19;20006;-68
2023/05/25 02:13:45;;;;;;;9.10;4.30;;;9.80;1.00;;;;;;7365880;19;20018;-68
2023/05/25 02:16:14;;;;;;;12.95;4.13;;;9.80;1.00;;;;;;7367092;19;20015;-67
2023/05/25 02:18:45;;;;;;;11.52;4.20;;;9.80;1.00;;;;;;7369305;19;20019;-68
2023/05/25 02:21:15;;;;;;;12.23;4.35;;;9.80;1.00;;;;;;7366168;19;20006;-68
2023/05/25 02:23:48;;;;;;;11.60;4.30;;;9.80;1.00;;;;;;7387050;19;20035;-68
2023/05/25 02:26:19;;;;;;;10.00;3.80;;;9.70;1.00;;;;;;7366435;19;20030;-68
2023/05/25 02:28:49;;;;;;;13.35;4.38;;;9.70;1.00;;;;;;7368059;19;20050;-68
2023/05/25 02:31:19;;;;;;;9.85;4.05;;;9.70;1.00;;;;;;7366680;19;20087;-68
2023/05/25 02:33:49;;;;;;;10.52;4.45;;;9.60;1.00;;;;;;7365756;19;20026;-68
2023/05/25 02:36:19;;;;;;;11.52;4.13;;;9.60;1.00;;;;;;7366959;19;20471;-68
2023/05/25 02:38:52;;;;;;;8.77;4.03;;;9.50;1.00;;;;;;7389531;19;20007;-68
2023/05/25 02:41:23;;;;;;;14.88;4.70;;;9.50;1.00;;;;;;7366949;19;20367;-68
2023/05/25 02:43:53;;;;;;;12.38;4.47;;;9.40;1.00;;;;;;7364417;19;20007;-69
2023/05/25 02:46:23;;;;;;;9.60;4.13;;;9.30;1.00;;;;;;7365870;19;20003;-68
2023/05/25 02:48:53;;;;;;;11.35;4.43;;;9.30;1.00;;;;;;7372540;19;20018;-68
2023/05/25 02:51:23;;;;;;;12.60;5.05;;;9.10;1.00;;;;;;7371713;19;20036;-67
2023/05/25 02:53:55;;;;;;;11.45;4.18;;;9.10;1.00;;;;;;7394355;19;20377;-68
2023/05/25 02:56:26;;;;;;;10.82;4.57;;;9.00;1.00;;;;;;7373289;19;20078;-68
2023/05/25 02:58:56;;;;;;;13.02;4.90;;;9.00;1.00;;;;;;7374357;19;20107;-68
2023/05/25 03:01:29;;;;;;;8.10;4.18;;;8.90;1.00;;;;;;7374080;19;20018;-68
2023/05/25 03:04:00;;;;;;;12.27;4.35;;;8.80;1.00;;;;;;7372053;19;20010;-68
2023/05/25 03:06:30;;;;;;;10.10;4.20;;;8.80;1.00;;;;;;7373751;19;20010;-68
2023/05/25 03:09:03;;;;;;;11.50;5.25;;;8.70;1.00;;;;;;7394958;19;20031;-69
2023/05/25 03:11:33;;;;;;;10.18;4.95;;;8.70;1.00;;;;;;7372897;19;20017;-68
2023/05/25 03:14:03;;;;;;;13.30;5.28;;;8.70;1.00;;;;;;7372768;19;20506;-67
2023/05/25 03:16:35;;;;;;;16.25;4.85;;;8.70;1.00;;;;;;7373541;19;20011;-68
2023/05/25 03:19:06;;;;;;;13.70;5.20;;;8.70;1.00;;;;;;7372914;19;20086;-68
2023/05/25 03:21:36;;;;;;;14.52;4.72;;;8.60;1.00;;;;;;7372147;19;20015;-69
2023/05/25 03:24:08;;;;;;;9.82;4.53;;;8.60;1.00;;;;;;7371425;19;20078;-68
2023/05/25 03:26:41;;;;;;;12.73;4.75;;;8.60;1.00;;;;;;7392776;19;20029;-67
2023/05/25 03:29:11;;;;;;;14.43;5.10;;;8.70;1.00;;;;;;7371944;19;20006;-68
2023/05/25 03:31:41;;;;;;;12.10;4.43;;;8.60;1.00;;;;;;7371619;19;20012;-68
2023/05/25 03:34:11;;;;;;;10.48;4.70;;;8.60;1.00;;;;;;7372404;19;20010;-68
2023/05/25 03:36:44;;;;;;;12.98;4.85;;;8.60;1.00;;;;;;7373399;19;20354;-67
2023/05/25 03:39:17;;;;;;;10.07;4.88;;;8.50;1.00;;;;;;7369884;19;20014;-67
2023/05/25 03:41:47;;;;;;;7.57;4.07;;;8.50;1.00;;;;;;7393553;19;20411;-68
2023/05/25 03:44:17;;;;;;;15.30;5.18;;;8.50;1.00;;;;;;7371066;19;20044;-68
2023/05/25 03:46:47;;;;;;;9.45;5.13;;;8.60;1.00;;;;;;7372380;19;20019;-67
2023/05/25 03:49:17;;;;;;;11.18;4.68;;;8.90;1.00;;;;;;7371936;19;20014;-68
2023/05/25 03:51:47;;;;;;;10.35;4.70;;;9.20;1.00;;;;;;7371171;19;20327;-68
2023/05/25 03:54:19;;;;;;;14.70;4.88;;;9.50;1.00;;;;;;7372096;19;20073;-68
2023/05/25 03:56:49;;;;;;;14.93;4.80;;;9.60;1.00;;;;;;7395124;19;20099;-68
2023/05/25 03:59:19;;;;;;;11.82;4.70;;;9.30;1.00;;;;;;7368508;19;20109;-68
2023/05/25 04:01:49;;;;;;;9.40;4.35;;;9.80;1.00;;;;;;7370100;19;20057;-68
2023/05/25 04:04:19;;;;;;;13.45;5.72;;;10.00;1.00;;;;;;7369764;19;20010;-68
2023/05/25 04:06:50;;;;;;;8.32;4.15;;;10.30;1.00;;;;;;7372395;19;20023;-68
2023/05/25 04:09:23;;;;;;;13.13;5.00;;;10.50;1.00;;;;;;7371539;19;20030;-68
2023/05/25 04:11:53;;;;;;;11.23;4.70;;;10.60;1.00;;;;;;7391280;19;20039;-68
2023/05/25 04:14:23;;;;;;;11.43;5.20;;;10.70;1.00;;;;;;7370588;19;20324;-68
2023/05/25 04:16:53;;;;;;;9.35;4.53;;;10.90;1.00;;;;;;7371386;19;20002;-68
2023/05/25 04:19:23;;;;;;;14.50;5.55;;;11.00;1.00;;;;;;7369609;19;20822;-68
2023/05/25 04:21:52;;;;;;;12.75;4.72;;;11.30;1.00;;;;;;7369850;19;20020;-68
2023/05/25 04:24:26;;;;;;;9.30;4.38;;;11.80;1.00;;;;;;7370253;19;20010;-68
2023/05/25 04:26:56;;;;;;;10.73;4.20;;;12.30;1.00;;;;;;7392897;19;20074;-68
2023/05/25 04:29:27;;;;;;;9.48;4.20;;;12.60;1.00;;;;;;7369252;19;20355;-68
2023/05/25 04:31:57;;;;;;;9.25;4.43;;;12.30;1.00;;;;;;7369847;19;20015;-68
2023/05/25 04:34:28;;;;;;;11.30;4.40;;;12.70;1.00;;;;;;7368631;19;20083;-68
2023/05/25 04:37:02;;;;;;;11.88;4.88;;;12.60;1.00;;;;;;7370785;19;20275;-68
2023/05/25 04:39:34;;;;;;;12.07;5.10;;;12.50;1.00;;;;;;7370286;19;20015;-68
2023/05/25 04:42:04;;;;;;;13.20;4.63;;;12.40;1.00;;;;;;7369601;19;20015;-69
2023/05/25 04:44:36;;;;;;;12.82;4.57;;;12.70;1.00;;;;;;7391211;19;20093;-68
2023/05/25 04:47:07;;;;;;;13.52;4.47;;;12.70;1.00;;;;;;7369536;19;20065;-68
2023/05/25 04:49:37;;;;;;;11.98;4.80;;;13.20;1.00;;;;;;7370099;19;20025;-68
2023/05/25 04:52:08;;;;;;;12.60;4.13;;;13.90;1.00;;;;;;7367991;19;20007;-68
2023/05/25 04:54:42;;;;;;;16.15;5.45;;;14.30;1.00;;;;;;7370111;19;20014;-68
2023/05/25 04:57:12;;;;;;;10.63;4.50;;;14.30;1.00;;;;;;7370463;19;20010;-68
2023/05/25 04:59:42;;;;;;;13.63;5.55;;;14.30;1.00;;;;;;7390643;19;20044;-68
2023/05/25 05:02:12;;;;;;;9.80;4.30;;;14.50;1.00;;;;;;7367856;19;20014;-68
2023/05/25 05:04:42;;;;;;;12.45;4.05;;;14.70;1.00;;;;;;7369402;19;20007;-68
2023/05/25 05:07:12;;;;;;;11.68;4.90;;;14.60;1.00;;;;;;7369622;19;20018;-68
2023/05/25 05:09:44;;;;;;;13.18;4.60;;;13.70;1.00;;;;;;7369735;19;20015;-68
2023/05/25 05:12:14;;;;;;;11.70;5.10;;;14.50;1.00;;;;;;7364382;19;20118;-68
2023/05/25 05:14:44;;;;;;;11.35;4.68;;;14.80;1.00;;;;;;7391281;19;20018;-68
2023/05/25 05:17:14;;;;;;;9.70;5.03;;;15.10;1.00;;;;;;7369313;19;20098;-68
2023/05/25 05:19:44;;;;;;;12.77;5.13;;;14.80;1.00;;;;;;7368049;19;20031;-68
2023/05/25 05:22:14;;;;;;;13.63;5.00;;;15.40;1.00;;;;;;7367729;19;20077;-68
2023/05/25 05:24:47;;;;;;;10.82;4.82;;;15.60;1.00;;;;;;7367628;19;20011;-68
2023/05/25 05:27:17;;;;;;;10.65;5.00;;;14.80;1.00;;;;;;7369544;19;20039;-68
2023/05/25 05:29:47;;;;;;;15.52;5.35;;;15.20;1.00;;;;;;7388337;19;20014;-68
2023/05/25 05:32:17;;;;;;;10.60;5.03;;;14.80;1.00;;;;;;7366068;19;20010;-68
2023/05/25 05:34:47;;;;;;;16.52;5.28;;;15.40;1.00;;;;;;7366527;19;20007;-68
2023/05/25 05:37:17;;;;;;;13.55;5.38;;;15.10;1.00;;;;;;7367752;19;20487;-71
2023/05/25 05:39:51;;;;;;;14.23;5.05;;;15.00;1.00;;;;;;7366848;19;20031;-68
2023/05/25 05:42:21;;;;;;;15.98;5.00;;;14.60;1.00;;;;;;7365534;19;20014;-69
2023/05/25 05:44:51;;;;;;;14.52;5.50;;;14.70;1.00;;;;;;7388859;19;20014;-68
2023/05/25 05:47:21;;;;;;;13.50;5.40;;;15.10;1.00;;;;;;7367812;19;20475;-67
2023/05/25 05:49:51;;;;;;;12.48;4.65;;;14.80;1.00;;;;;;7366158;19;20102;-68
2023/05/25 05:52:21;;;;;;;13.05;4.75;;;14.80;1.00;;;;;;7365532;19;20399;-68
2023/05/25 05:54:53;;;;;;;13.07;5.38;;;13.80;1.00;;;;;;7367239;19;20015;-68
2023/05/25 05:57:23;;;;;;;12.70;5.00;;;14.50;1.00;;;;;;7368560;19;20078;-68
2023/05/25 05:59:53;;;;;;;15.23;4.55;;;13.30;1.00;;;;;;7387638;19;20018;-68
2023/05/25 06:02:23;;;;;;;11.20;4.70;;;12.80;1.00;;;;;;7365909;19;20010;-67
2023/05/25 06:04:53;;;;;;;13.43;4.90;;;13.90;1.00;;;;;;7366403;19;20015;-68
2023/05/25 06:07:23;;;;;;;12.75;5.55;;;15.00;1.00;;;;;;7366508;19;20086;-68
2023/05/25 06:09:56;;;;;;;13.45;5.25;;;14.80;1.00;;;;;;7366321;19;20014;-68
2023/05/25 06:12:26;;;;;;;13.15;5.05;;;14.70;1.00;;;;;;7365337;19;20022;-69
2023/05/25 06:14:56;;;;;;;14.48;5.30;;;14.40;1.00;;;;;;7389595;19;20036;-68
2023/05/25 06:17:26;;;;;;;11.65;4.95;;;14.60;1.00;;;;;;7367815;19;20378;-68
2023/05/25 06:19:56;;;;;;;13.55;5.18;;;14.80;1.00;;;;;;7364099;19;20026;-68
2023/05/25 06:22:26;;;;;;;11.90;4.97;;;15.50;1.00;;;;;;7363428;19;20023;-68
2023/05/25 06:25:00;;;;;;;13.13;5.93;;;15.10;1.00;;;;;;7365640;19;20034;-68
2023/05/25 06:27:30;;;;;;;10.32;5.15;;;15.40;1.00;;;;;;7363621;19;20015;-69
2023/05/25 06:30:00;;;;;;;11.93;4.85;;;15.10;1.00;;;;;;7386423;19;20077;-68
2023/05/25 06:32:31;;;;;;;17.30;5.93;;;15.40;1.00;;;;;;7365561;19;20025;-69
2023/05/25 06:35:02;;;;;;;17.27;5.78;;;14.70;1.00;;;;;;7365461;19;20011;-69
2023/05/25 06:37:36;;;;;;;16.45;5.57;;;13.80;1.00;;;;;;7367516;19;20034;-68
2023/05/25 06:40:10;;;;;;;15.85;5.20;;;14.30;1.00;;;;;;7365594;19;20018;-67
2023/05/25 06:42:40;;;;;;;16.73;5.63;;;14.20;1.00;;;;;;7364841;19;20018;-67
2023/05/25 06:45:11;;;;;;;16.00;5.68;;;13.80;1.00;;;;;;7365186;19;20010;-68
2023/05/25 06:47:41;;;;;;;15.43;5.68;;;13.60;1.00;;;;;;7386151;19;20015;-69
2023/05/25 06:50:12;;;;;;;13.85;5.55;;;13.50;1.00;;;;;;7363561;19;20011;-69
2023/05/25 06:52:42;;;;;;;10.77;4.90;;;13.10;1.00;;;;;;7365883;19;20010;-68
2023/05/25 06:55:15;;;;;;;14.35;5.57;;;13.10;1.00;;;;;;7364345;19;20019;-68
2023/05/25 06:57:45;;;;;;;12.35;4.82;;;13.40;1.00;;;;;;7366021;19;20477;-69
2023/05/25 07:00:17;;;;;;;12.52;5.15;;;13.30;1.00;;;;;;7363894;19;20488;-69
2023/05/25 07:02:47;;;;;;;12.85;4.93;;;13.20;1.00;;;;;;7385906;19;20037;-69
2023/05/25 07:05:17;;;;;;;18.60;5.57;;;13.10;1.00;;;;;;7364332;19;20017;-70
2023/05/25 07:07:47;;;;;;;14.25;5.05;;;13.00;1.00;;;;;;7365098;19;20073;-68
2023/05/25 07:10:20;;;;;;;17.60;5.55;;;12.90;1.00;;;;;;7364329;19;20014;-69
2023/05/25 07:12:50;;;;;;;15.15;5.25;;;13.20;1.00;;;;;;7363165;19;20018;-69
2023/05/25 07:15:20;;;;;;;8.80;4.65;;;13.40;1.00;;;;;;7364135;19;20018;-69
2023/05/25 07:17:50;;;;;;;11.45;5.35;;;13.50;1.00;;;;;;7387052;19;20015;-69
2023/05/25 07:20:20;;;;;;;15.27;5.70;;;13.90;1.00;;;;;;7362789;19;20127;-69
2023/05/25 07:22:52;;;;;;;16.67;5.30;;;13.70;1.00;;;;;;7362274;19;20006;-68
2023/05/25 07:25:24;;;;;;;16.52;5.95;;;13.90;1.00;;;;;;7363118;19;20534;-68
2023/05/25 07:27:55;;;;;;;13.48;5.85;;;13.90;1.00;;;;;;7363959;19;20031;-68
2023/05/25 07:30:25;;;;;;;10.40;5.00;;;13.90;1.00;;;;;;7363391;19;20039;-69
2023/05/25 07:32:55;;;;;;;14.02;5.15;;;14.30;1.00;;;;;;7384854;19;20064;-68
2023/05/25 07:35:26;;;;;;;15.43;5.35;;;14.50;1.00;;;;;;7367256;19;20011;-69
2023/05/25 07:37:59;;;;;;;13.02;5.80;;;14.30;1.00;;;;;;7371033;19;20522;-69
2023/05/25 07:40:32;;;;;;;10.15;5.05;;;14.70;1.00;;;;;;7369846;19;20034;-69
2023/05/25 07:43:02;;;;;;;11.35;5.13;;;14.90;1.00;;;;;;7369039;19;20023;-69
2023/05/25 07:45:33;;;;;;;12.30;5.47;;;14.70;1.00;;;;;;7371302;19;20085;-68
2023/05/25 07:48:05;;;;;;;12.05;5.22;;;14.40;1.00;;;;;;7380920;19;20002;-70
2023/05/25 07:50:35;;;;;;;13.80;6.05;;;14.70;1.00;;;;;;7390882;19;20463;-69
2023/05/25 07:53:05;;;;;;;16.35;6.03;;;14.80;1.00;;;;;;7368933;19;20499;-68
2023/05/25 07:55:38;;;;;;;17.77;5.65;;;14.90;1.00;;;;;;7370563;19;20041;-69
2023/05/25 07:58:08;;;;;;;10.50;5.25;;;15.20;1.00;;;;;;7370667;19;20014;-68
2023/05/25 08:00:38;;;;;;;15.65;5.47;;;15.30;1.00;;;;;;7370775;19;20006;-70
2023/05/25 08:03:08;;;;;;;14.82;5.88;;;15.40;1.00;;;;;;7370027;19;20010;-69
2023/05/25 08:05:39;;;;;;;9.45;5.85;;;15.10;1.00;;;;;;7392240;19;20006;-68
2023/05/25 08:08:09;;;;;;;13.45;5.80;;;15.40;1.00;;;;;;7367935;19;20011;-67
2023/05/25 08:10:41;;;;;;;11.00;5.38;;;15.40;1.00;;;;;;7370940;19;20019;-70
2023/05/25 08:13:12;;;;;;;12.57;5.70;;;16.10;1.00;;;;;;7369512;19;20014;-68
2023/05/25 08:15:42;;;;;;;12.60;5.25;;;15.90;1.00;;;;;;7368338;19;20018;-68
2023/05/25 08:18:12;;;;;;;12.82;5.95;;;15.90;1.00;;;;;;7370048;19;20345;-70
2023/05/25 08:20:42;;;;;;;10.48;6.00;;;16.20;1.00;;;;;;7390260;19;20086;-69
2023/05/25 08:23:12;;;;;;;13.13;6.00;;;16.40;1.00;;;;;;7368237;19;20040;-69
2023/05/25 08:25:45;;;;;;;9.10;4.95;;;15.60;1.00;;;;;;7369827;19;20364;-68
2023/05/25 08:28:15;;;;;;;12.00;5.70;;;15.80;1.00;;;;;;7368779;19;20823;-69
2023/05/25 08:30:47;;;;;;;11.85;5.93;;;16.40;1.00;;;;;;7369462;19;20392;-68
2023/05/25 08:33:17;;;;;;;10.07;6.40;;;16.60;1.00;;;;;;7368948;19;20495;-69
2023/05/25 08:35:48;;;;;;;14.45;6.22;;;16.30;1.00;;;;;;7392019;19;20010;-68
2023/05/25 08:38:18;;;;;;;13.82;6.43;;;16.00;1.00;;;;;;7367868;19;20499;-68
2023/05/25 08:40:56;;;;;;;16.08;7.13;;;16.10;1.00;;;;;;7369098;19;20590;-68
2023/05/25 08:43:26;;;;;;;14.95;6.60;;;16.30;1.00;;;;;;7369013;19;20007;-69
2023/05/25 08:46:00;;;;;;;11.73;6.20;;;16.30;1.00;;;;;;7369062;19;20509;-69
2023/05/25 08:48:33;;;;;;;13.45;6.03;;;16.30;1.00;;;;;;7368159;19;20031;-68
2023/05/25 08:51:13;;;;;;;13.63;6.32;;;16.60;1.00;;;;;;7365623;19;20029;-69
2023/05/25 08:53:44;;;;;;;13.57;6.43;;;17.10;1.00;;;;;;7390370;19;20011;-68
2023/05/25 08:56:20;;;;;;;14.48;6.32;;;17.00;1.00;;;;;;7369933;19;20827;-69
2023/05/25 08:58:57;;;;;;;11.85;6.53;;;17.10;1.00;;;;;;7368788;19;19999;-69
2023/05/25 09:01:30;;;;;;;13.95;6.20;;;17.20;1.00;;;;;;7367119;19;20014;-68
2023/05/25 09:04:01;;;;;;;17.30;7.15;;;17.70;1.00;;;;;;7365844;19;20035;-68
2023/05/25 09:06:35;;;;;;;16.55;6.82;;;17.40;1.00;;;;;;7366983;19;20034;-69
2023/05/25 09:09:06;;;;;;;11.38;6.30;;;17.80;1.00;;;;;;7365276;19;20331;-69
2023/05/25 09:11:39;;;;;;;12.23;5.95;;;17.90;1.00;;;;;;7388629;19;20018;-68
2023/05/25 09:14:13;;;;;;;16.98;6.65;;;17.80;1.00;;;;;;7368977;19;20010;-68
2023/05/25 09:16:43;;;;;;;12.57;6.07;;;17.50;1.00;;;;;;7367543;19;20365;-69
2023/05/25 09:19:14;;;;;;;13.35;6.68;;;17.70;1.00;;;;;;7367613;19;20014;-69
2023/05/25 09:21:46;;;;;;;11.57;6.60;;;17.80;1.00;;;;;;7366859;19;20019;-68
2023/05/25 09:24:17;;;;;;;11.65;6.32;;;17.70;1.00;;;;;;7368372;19;20010;-68
2023/05/25 09:26:50;;;;;;;13.18;6.75;;;17.60;1.00;;;;;;7390062;19;20023;-68
2023/05/25 09:29:20;;;;;;;13.02;6.35;;;17.70;1.00;;;;;;7366637;19;20022;-69
2023/05/25 09:31:50;;;;;;;9.82;6.43;;;18.30;1.00;;;;;;7363759;19;20033;-68
2023/05/25 09:34:21;;;;;;;15.48;6.75;;;18.30;1.00;;;;;;7368380;19;20010;-69
2023/05/25 09:36:52;;;;;;;10.98;6.32;;;17.80;1.00;;;;;;7368918;19;20054;-69
2023/05/25 09:39:23;;;;;;;13.27;6.25;;;17.80;1.00;;;;;;7367179;19;20014;-68
2023/05/25 09:41:56;;;;;;;15.05;6.28;;;18.40;1.00;;;;;;7386390;19;20103;-68
2023/05/25 09:44:26;;;;;;;14.07;6.00;;;18.40;1.00;;;;;;7367465;19;20462;-68
2023/05/25 09:46:56;;;;;;;13.60;6.20;;;18.60;1.00;;;;;;7367182;19;20154;-70
2023/05/25 09:49:26;;;;;;;10.48;6.20;;;18.20;1.00;;;;;;7366297;19;20031;-68
2023/05/25 09:51:56;;;;;;;18.85;6.82;;;18.70;1.00;;;;;;7366227;19;20030;-68
2023/05/25 09:54:27;;;;;;;11.55;6.05;;;18.80;1.00;;;;;;7366687;19;20356;-69
2023/05/25 09:57:04;;;;;;;11.82;6.32;;;18.90;1.00;;;;;;7385770;19;20098;-69
2023/05/25 09:59:34;;;;;;;11.40;5.97;;;18.10;1.00;;;;;;7366935;19;20074;-69
2023/05/25 10:02:04;;;;;;;12.50;6.18;;;18.40;1.00;;;;;;7363505;19;20010;-68
2023/05/25 10:04:34;;;;;;;14.88;6.78;;;18.40;1.00;;;;;;7366097;19;20010;-69
2023/05/25 10:07:05;;;;;;;11.27;6.38;;;18.60;1.00;;;;;;7366368;19;20387;-69
2023/05/25 10:09:43;;;;;;;15.48;6.32;;;18.70;1.00;;;;;;7365667;19;20035;-69
2023/05/25 10:12:20;;;;;;;12.73;6.22;;;19.30;1.00;;;;;;7362712;19;20071;-69
2023/05/25 10:14:53;;;;;;;11.90;5.63;;;19.30;1.00;;;;;;7388317;19;20010;-69
2023/05/25 10:17:25;;;;;;;11.55;5.97;;;19.30;1.00;;;;;;7365686;19;20019;-69
2023/05/25 10:19:58;;;;;;;11.38;5.57;;;19.20;1.00;;;;;;7365205;19;20010;-69
2023/05/25 10:22:35;;;;;;;11.05;5.38;;;19.60;1.00;;;;;;7361922;19;20367;-69
2023/05/25 10:25:11;;;;;;;10.27;5.95;;;19.50;1.00;;;;;;7366626;19;20011;-69
2023/05/25 10:27:49;;;;;;;9.70;5.60;;;19.80;1.00;;;;;;7364808;19;20112;-69
2023/05/25 10:30:20;;;;;;;10.43;5.88;;;19.80;1.00;;;;;;7364838;19;20011;-70
2023/05/25 10:32:51;;;;;;;10.32;5.40;;;19.60;1.00;;;;;;7385996;19;20047;-69
2023/05/25 10:35:22;;;;;;;10.88;6.15;;;19.60;1.00;;;;;;7366380;19;20003;-69
2023/05/25 10:37:54;;;;;;;19.75;7.20;;;19.00;1.00;;;;;;7366270;19;20006;-68
2023/05/25 10:40:25;;;;;;;15.88;6.57;;;19.20;1.00;;;;;;7364954;19;20682;-69
2023/05/25 10:42:58;;;;;;;12.73;5.65;;;19.50;1.00;;;;;;7362520;19;20479;-70
2023/05/25 10:45:28;;;;;;;9.57;5.57;;;20.10;1.00;;;;;;7365927;19;20421;-69
2023/05/25 10:47:59;;;;;;;12.63;5.20;;;19.80;1.00;;;;;;7387203;19;20074;-70
2023/05/25 10:50:37;;;;;;;15.13;5.43;;;20.00;1.00;;;;;;7364615;19;20018;-69
2023/05/25 10:53:09;;;;;;;10.30;5.50;;;19.90;1.00;;;;;;7363255;19;20557;-69
2023/05/25 10:55:51;;;;;;;11.55;5.00;;;20.10;1.00;;;;;;7365782;19;20094;-69
2023/05/25 10:58:24;;;;;;;12.20;4.80;;;20.50;1.00;;;;;;7364132;19;20439;-69
2023/05/25 11:01:02;;;;;;;9.88;4.93;;;20.60;1.00;;;;;;7362952;19;20002;-68
2023/05/25 11:03:56;;;;;;;9.43;4.53;;;20.40;1.00;;;;;;7364202;19;20011;-68
2023/05/25 11:07:01;;;;;;;9.38;4.70;;;19.90;1.00;;;;;;7364656;19;20021;-70
2023/05/25 11:09:34;;;;;;;10.63;5.60;;;19.90;1.00;;;;;;7367347;19;20014;-69
2023/05/25 11:12:05;;;;;;;8.85;4.90;;;21.00;1.00;;;;;;7375380;19;20496;-69
2023/05/25 11:14:41;;;;;;;12.93;5.13;;;20.70;1.00;;;;;;7393179;19;20061;-70
2023/05/25 11:17:13;;;;;;;10.77;5.20;;;20.90;1.00;;;;;;7371911;19;20320;-69
2023/05/25 11:19:45;;;;;;;9.43;5.38;;;20.40;1.00;;;;;;7370627;19;20017;-68
2023/05/25 11:22:20;;;;;;;10.57;5.15;;;20.20;1.00;;;;;;7370785;19;20052;-69
2023/05/25 11:24:51;;;;;;;10.65;4.60;;;20.70;1.00;;;;;;7371476;19;20459;-70
2023/05/25 11:27:25;;;;;;;11.38;4.60;;;20.80;1.00;;;;;;7371733;19;20048;-69
2023/05/25 11:29:59;;;;;;;8.00;4.88;;;20.90;1.00;;;;;;7391121;19;20014;-69
2023/05/25 11:32:30;;;;;;;12.23;5.55;;;21.20;1.00;;;;;;7370362;19;20021;-69
2023/05/25 11:35:00;;;;;;;11.65;7.20;;;21.30;1.00;;;;;;7370760;19;20018;-69
2023/05/25 11:37:30;;;;;;;9.88;5.55;;;21.20;1.00;;;;;;7372115;19;20019;-69
2023/05/25 11:40:00;;;;;;;12.23;5.40;;;21.30;1.00;;;;;;7370292;19;20042;-69
2023/05/25 11:42:31;;;;;;;7.78;5.07;;;21.10;1.00;;;;;;7368985;19;20561;-69
2023/05/25 11:45:07;;;;;;;10.52;5.30;;;21.20;1.00;;;;;;7392989;19;20018;-69
2023/05/25 11:47:37;;;;;;;10.05;4.85;;;20.80;1.00;;;;;;7371818;19;20073;-68
2023/05/25 11:50:08;;;;;;;9.77;5.22;;;20.70;1.00;;;;;;7368568;19;20015;-69
2023/05/25 11:52:38;;;;;;;10.90;5.57;;;21.20;1.00;;;;;;7370521;19;20081;-69
2023/05/25 11:55:13;;;;;;;12.70;5.47;;;20.90;1.00;;;;;;7369702;19;20027;-69
2023/05/25 11:57:43;;;;;;;9.20;4.45;;;20.90;1.00;;;;;;7372457;19;20080;-69
2023/05/25 12:00:26;;;;;;;5.47;4.53;;;21.50;1.00;;;;;;7369832;19;20035;-69
2023/05/25 12:02:57;;;;;;;11.02;4.75;;;21.30;1.00;;;;;;7391827;19;20027;-70
2023/05/25 12:05:27;;;;;;;7.50;4.70;;;21.90;1.00;;;;;;7367092;19;20013;-69
2023/05/25 12:07:57;;;;;;;9.95;4.63;;;21.70;1.00;;;;;;7370255;19;20017;-69
2023/05/25 12:10:27;;;;;;;7.80;4.57;;;21.60;1.00;;;;;;7369256;19;20011;-69
2023/05/25 12:12:59;;;;;;;8.90;4.93;;;21.50;1.00;;;;;;7369232;19;20438;-69
2023/05/25 12:15:31;;;;;;;9.32;5.07;;;21.70;1.00;;;;;;7369311;19;20412;-69
2023/05/25 12:18:01;;;;;;;8.25;4.57;;;22.00;1.00;;;;;;7389919;19;20014;-69
2023/05/25 12:20:32;;;;;;;6.80;4.63;;;22.00;1.00;;;;;;7366799;19;20511;-69
2023/05/25 12:23:02;;;;;;;9.27;4.68;;;22.00;1.00;;;;;;7368710;19;20675;-69
2023/05/25 12:25:32;;;;;;;8.55;4.93;;;21.70;1.00;;;;;;7368804;19;20026;-69
2023/05/25 12:28:19;;;;;;;8.30;4.63;;;21.60;1.00;;;;;;7370752;19;20842;-68
2023/05/25 12:30:51;;;;;;;8.77;4.85;;;21.90;1.00;;;;;;7366345;19;20022;-69
2023/05/25 12:33:23;;;;;;;7.68;4.72;;;21.80;1.00;;;;;;7369241;19;20029;-69
2023/05/25 12:35:54;;;;;;;8.05;4.68;;;21.30;1.00;;;;;;7390909;19;20089;-69
2023/05/25 12:38:24;;;;;;;7.75;5.03;;;21.50;1.00;;;;;;7369433;19;20031;-68
2023/05/25 12:41:07;;;;;;;10.10;5.07;;;21.20;1.00;;;;;;7367557;19;20018;-69
2023/05/25 12:43:42;;;;;;;12.27;5.40;;;21.70;1.00;;;;;;7368507;19;20010;-68
2023/05/25 12:46:26;;;;;;;10.65;5.35;;;21.90;1.00;;;;;;7369151;19;20018;-68
2023/05/25 12:48:56;;;;;;;8.32;4.70;;;22.10;1.00;;;;;;7368829;19;20011;-68
2023/05/25 12:51:26;;;;;;;12.27;5.50;;;21.70;1.00;;;;;;7367024;19;20017;-68
2023/05/25 12:53:57;;;;;;;9.32;4.80;;;21.40;1.00;;;;;;7387650;19;20038;-68
2023/05/25 12:56:27;;;;;;;9.27;4.93;;;21.70;1.00;;;;;;7364639;19;20010;-69
2023/05/25 12:58:57;;;;;;;10.43;4.70;;;21.90;1.00;;;;;;7368968;19;20027;-67
2023/05/25 13:01:30;;;;;;;12.82;6.00;;;21.50;1.00;;;;;;7363788;19;20010;-68
2023/05/25 13:04:00;;;;;;;8.73;4.88;;;21.50;1.00;;;;;;7365035;19;20018;-69
2023/05/25 13:06:30;;;;;;;9.65;5.40;;;21.40;1.00;;;;;;7367939;19;20011;-69
2023/05/25 13:09:03;;;;;;;10.13;4.90;;;21.40;1.00;;;;;;7387216;19;20009;-70
2023/05/25 13:11:33;;;;;;;10.35;5.07;;;21.50;1.00;;;;;;7361700;19;20015;-68
2023/05/25 13:14:03;;;;;;;8.93;4.82;;;21.60;1.00;;;;;;7367058;19;20039;-70